Latest Weather Observations for Gelantipy

IDV60801

Issued at 8:02 pm EST Saturday 5 September 2015 (issued every 30 minutes, with the page automatically refreshed every 10 minutes)

About weather observations | Map of weather stations | Latest weather observations for VIC | Other Formats
Station Details ID: 084142 Name: GELANTIPY Lat: -37.22 Lon: 148.26 Height: 755.0 m
Data from the previous 72 hours. | See also: Recent months at Gelantipy
Date/Time
EST
Temp
°C
App
Temp
°C
Dew
Point
Rel
Hum
%
Delta-T
°C
Wind Press
QNH
hPa
Press
MSL
hPa
Rain
since 9 am
mm
Dir
 
Spd
km/h
Gust
km/h
Spd
kts
Gust
kts
05/08:00pm 3.0 1.3 2.0 93 0.4 CALM 0 0 0 0 1022.9 1022.9 0.2
05/07:30pm 4.3 2.8 3.0 91 0.6 CALM 0 2 0 1 1022.5 1022.6 0.2
05/07:00pm 4.2 2.3 2.6 89 0.7 W 2 6 1 3 1022.5 1022.6 0.2
05/06:30pm 5.0 2.7 2.9 86 0.9 WSW 4 7 2 4 1022.4 1022.5 0.2
05/06:00pm 5.5 2.9 3.2 85 1.0 W 6 7 3 4 1022.0 1022.0 0.2
05/05:30pm 6.5 3.3 3.1 79 1.5 SSW 9 13 5 7 1021.7 1021.7 0.2
05/05:00pm 7.2 3.7 3.4 77 1.7 SSW 11 17 6 9 1021.5 1021.5 0.2
05/04:30pm 7.9 4.4 3.6 74 1.9 S 11 17 6 9 1021.4 1021.4 0.2
05/04:00pm 8.2 4.3 3.3 71 2.2 S 13 20 7 11 1021.4 1021.4 0.2
05/03:30pm 8.3 4.1 3.6 72 2.1 S 15 20 8 11 1021.4 1021.4 0.2
05/03:00pm 8.7 4.5 3.7 71 2.3 S 15 20 8 11 1021.0 1021.1 0.2
05/02:30pm 9.0 6.0 4.2 72 2.2 S 9 20 5 11 1021.0 1021.1 0.2
05/02:00pm 9.0 5.5 3.4 68 2.5 SSW 11 20 6 11 1021.1 1021.2 0.2
05/01:30pm 8.7 4.7 3.1 68 2.5 SSW 13 19 7 10 1021.4 1021.4 0.0
05/01:00pm 8.2 4.3 3.3 71 2.2 SSW 13 22 7 12 1021.6 1021.6 0.0
05/12:30pm 7.8 4.0 4.0 77 1.7 SSW 13 20 7 11 1022.0 1022.0 0.0
05/12:00pm 7.6 3.3 3.1 73 2.0 SW 15 22 8 12 1022.3 1022.4 0.0
05/11:30am 7.0 2.8 3.8 80 1.4 SW 15 22 8 12 1022.5 1022.6 0.0
05/11:00am 6.3 1.5 2.8 78 1.5 SW 17 24 9 13 1023.0 1023.0 0.0
05/10:30am 6.0 1.1 2.3 77 1.6 WSW 17 26 9 14 1023.1 1023.1 0.0
05/10:00am 5.5 0.7 2.7 82 1.2 WSW 17 30 9 16 1023.3 1023.4 0.0
05/09:30am 5.3 0.9 2.8 84 1.1 SW 15 24 8 13 1023.3 1023.4 0.0
05/09:00am 5.0 0.6 2.7 85 1.0 SW 15 26 8 14 1023.4 1023.5 0.0
05/08:30am 5.0 1.8 3.0 87 0.9 SW 9 15 5 8 1023.2 1023.2 0.0
05/08:00am 4.6 0.6 2.8 88 0.8 WSW 13 17 7 9 1022.9 1022.9 0.0
05/07:30am 4.0 0.8 3.0 93 0.4 WSW 9 11 5 6 1022.7 1022.7 0.0
05/07:00am 3.3 0.0 2.7 96 0.3 WSW 9 13 5 7 1022.3 1022.4 0.0
05/06:30am 3.0 1.4 2.4 96 0.2 CALM 0 0 0 0 1022.0 1022.0 0.0
05/06:00am 3.0 1.4 2.4 96 0.2 CALM 0 0 0 0 1021.6 1021.6 0.0
05/05:30am 2.8 0.4 2.1 95 0.3 WNW 4 7 2 4 1021.4 1021.4 0.0
05/05:00am 3.3 1.7 2.4 94 0.4 CALM 0 0 0 0 1021.3 1021.3 0.0
05/04:30am 3.5 1.9 2.5 93 0.4 CALM 0 0 0 0 1021.1 1021.2 0.0
05/04:00am 3.4 1.1 2.5 94 0.4 NW 4 7 2 4 1020.9 1020.9 0.0
05/03:30am 3.2 0.3 2.6 96 0.3 WNW 7 9 4 5 1021.0 1021.1 0.0
05/03:00am 3.0 1.0 2.4 96 0.2 WSW 2 6 1 3 1021.0 1021.1 0.0
05/02:30am 3.0 1.3 2.0 93 0.4 CALM 0 0 0 0 1021.3 1021.3 0.0
05/02:00am 3.6 1.9 2.1 90 0.6 CALM 0 0 0 0 1021.5 1021.5 0.0
05/01:30am 4.1 2.5 2.6 90 0.6 CALM 0 0 0 0 1021.8 1021.8 0.0
05/01:00am 4.2 1.5 2.9 91 0.6 WSW 6 7 3 4 1022.1 1022.1 0.0
05/12:30am 4.3 2.7 2.5 88 0.8 CALM 0 0 0 0 1022.2 1022.3 0.0
05/12:00am 4.3 1.3 2.3 87 0.8 SSW 7 11 4 6 1022.5 1022.6 0.0
 
Date/Time
EST
Temp
°C
App
Temp
°C
Dew
Point
Rel
Hum
%
Delta-T
°C
Wind Press
QNH
hPa
Press
MSL
hPa
Rain
since 9 am
mm
Dir
 
Spd
km/h
Gust
km/h
Spd
kts
Gust
kts
04/11:30pm 4.5 1.6 2.7 88 0.8 SSW 7 13 4 7 1022.8 1022.8 0.0
04/11:00pm 4.6 1.3 2.6 87 0.8 SSW 9 11 5 6 1022.9 1022.9 0.0
04/10:30pm 4.8 1.6 3.0 88 0.8 SW 9 13 5 7 1022.9 1022.9 0.0
04/10:00pm 4.9 1.7 3.1 88 0.8 SSW 9 13 5 7 1022.9 1022.9 0.0
04/09:30pm 4.9 1.7 3.2 89 0.7 SW 9 13 5 7 1022.7 1022.7 0.0
04/09:00pm 5.0 2.2 3.3 89 0.7 SSW 7 11 4 6 1022.5 1022.6 0.0
04/08:30pm 5.1 2.3 3.3 88 0.8 SW 7 13 4 7 1022.5 1022.6 0.0
04/08:00pm 5.2 2.5 3.5 89 0.7 SW 7 11 4 6 1022.4 1022.5 0.0
04/07:30pm 5.2 2.6 4.0 92 0.5 SW 7 13 4 7 1022.2 1022.3 0.0
04/07:00pm 5.3 2.3 4.3 93 0.4 SW 9 13 5 7 1022.0 1022.0 0.0
04/06:30pm 5.3 2.7 4.3 93 0.4 SW 7 11 4 6 1021.8 1021.8 0.0
04/06:00pm 5.4 2.8 4.2 92 0.5 SSW 7 9 4 5 1021.5 1021.5 0.0
04/05:30pm 5.7 3.3 4.5 92 0.5 SSW 6 9 3 5 1021.1 1021.2 0.0
04/05:00pm 5.8 2.8 4.3 90 0.7 SSW 9 11 5 6 1020.8 1020.8 0.0
04/04:30pm 6.0 3.5 4.5 90 0.7 S 7 13 4 7 1020.6 1020.6 0.0
04/04:00pm 6.2 3.3 4.5 89 0.8 S 9 13 5 7 1020.5 1020.5 0.0
04/03:30pm 6.2 3.3 4.4 88 0.8 SSW 9 13 5 7 1020.5 1020.5 0.0
04/03:00pm 6.2 3.3 4.5 89 0.8 S 9 15 5 8 1020.5 1020.5 0.0
04/02:30pm 6.2 3.3 4.4 88 0.8 S 9 15 5 8 1020.6 1020.6 0.0
04/02:00pm 6.3 3.0 4.5 88 0.8 S 11 17 6 9 1020.6 1020.6 0.0
04/01:30pm 6.0 2.3 4.2 88 0.8 S 13 19 7 10 1020.8 1020.8 0.0
04/01:00pm 6.2 2.9 4.5 89 0.8 S 11 19 6 10 1021.0 1021.1 0.0
04/12:30pm 5.5 2.5 4.0 90 0.7 S 9 13 5 7 1021.5 1021.5 0.0
04/12:00pm 5.5 2.8 3.7 88 0.8 S 7 11 4 6 1021.8 1021.8 0.0
04/11:30am 5.2 2.4 3.4 88 0.8 SSE 7 13 4 7 1021.9 1021.9 0.0
04/11:00am 4.9 1.7 3.2 89 0.7 S 9 15 5 8 1022.2 1022.3 0.0
04/10:30am 5.2 2.4 3.1 86 0.9 SW 7 13 4 7 1022.4 1022.5 0.0
04/10:00am 5.0 2.3 3.7 91 0.6 SSE 7 13 4 7 1022.7 1022.7 0.0
04/09:30am 4.4 1.6 3.1 91 0.6 SSE 7 11 4 6 1022.8 1022.8 0.0
04/09:00am 3.9 1.0 2.6 91 0.5 SSW 7 13 4 7 1022.8 1022.8 15.8
04/08:30am 3.9 0.6 2.7 92 0.5 SW 9 15 5 8 1022.8 1022.8 15.8
04/08:00am 3.8 0.6 2.9 94 0.4 SW 9 13 5 7 1022.5 1022.6 15.8
04/07:30am 3.6 1.0 3.0 96 0.3 SSW 6 7 3 4 1022.3 1022.4 15.8
04/07:00am 3.4 -0.3 2.5 94 0.4 SW 11 13 6 7 1021.9 1021.9 15.8
04/06:30am 3.5 0.9 3.1 97 0.2 S 6 9 3 5 1021.7 1021.7 15.8
04/06:00am 3.5 0.3 3.2 98 0.1 S 9 11 5 6 1021.4 1021.4 15.8
04/05:30am 3.6 1.1 3.5 99 0.0 S 6 9 3 5 1021.1 1021.2 15.8
04/05:00am 3.9 0.5 3.8 99 0.0 SW 11 15 6 8 1020.7 1020.7 15.8
04/04:30am 4.0 1.0 3.9 99 0.0 SSW 9 17 5 9 1020.4 1020.4 15.8
04/04:00am 4.2 1.2 4.1 99 0.0 SW 9 13 5 7 1020.4 1020.4 15.8
04/03:30am 4.4 0.7 4.4 100 0.0 SW 13 22 7 12 1020.4 1020.4 15.8
04/03:00am 4.6 0.9 4.6 100 0.0 SW 13 19 7 10 1020.3 1020.3 15.8
04/02:30am 5.2 1.6 5.2 100 0.0 SW 13 19 7 10 1020.2 1020.2 15.6
04/02:00am 5.3 2.5 5.3 100 0.0 SSW 9 17 5 9 1020.0 1020.0 15.2
04/01:30am 5.5 1.6 5.5 100 0.0 SW 15 20 8 11 1020.0 1020.0 14.6
04/01:00am 6.1 3.1 6.1 100 0.0 SW 11 17 6 9 1019.7 1019.7 14.0
04/12:30am 6.5 4.4 6.5 100 0.0 SSW 7 11 4 6 1019.5 1019.5 13.0
04/12:00am 6.5 4.6 6.5 100 0.0 SSW 6 9 3 5 1019.4 1019.4 12.4
 
Date/Time
EST
Temp
°C
App
Temp
°C
Dew
Point
Rel
Hum
%
Delta-T
°C
Wind Press
QNH
hPa
Press
MSL
hPa
Rain
since 9 am
mm
Dir
 
Spd
km/h
Gust
km/h
Spd
kts
Gust
kts
03/11:30pm 6.6 4.5 6.6 100 0.0 SSW 7 9 4 5 1019.3 1019.3 11.6
03/11:00pm 6.6 4.5 6.6 100 0.0 SSW 7 9 4 5 1019.0 1019.0 11.0
03/10:30pm 6.5 4.4 6.5 100 0.0 SSW 7 11 4 6 1018.9 1018.9 11.0
03/10:00pm 6.4 3.9 6.4 100 0.0 SSW 9 15 5 8 1018.6 1018.5 10.2
03/09:30pm 6.8 4.0 6.8 100 0.0 SSW 11 20 6 11 1018.2 1018.2 9.4
03/09:00pm 6.9 3.7 6.9 100 0.0 SSW 13 22 7 12 1018.0 1018.0 9.2
03/08:30pm 6.9 4.1 6.9 100 0.0 SSW 11 20 6 11 1017.7 1017.7 9.0
03/08:00pm 6.8 3.6 6.7 99 0.0 SW 13 28 7 15 1017.6 1017.5 8.6
03/07:30pm 6.6 3.3 6.3 98 0.1 SW 13 22 7 12 1017.3 1017.2 7.6
03/07:00pm 6.6 3.3 6.2 97 0.2 SW 13 22 7 12 1016.8 1016.8 7.0
03/06:30pm 6.6 2.8 5.9 95 0.3 SW 15 24 8 13 1016.3 1016.2 7.0
03/06:00pm 6.7 3.3 5.7 93 0.5 SW 13 22 7 12 1015.8 1015.7 7.0
03/05:30pm 6.8 3.4 5.9 94 0.4 SSW 13 20 7 11 1015.1 1015.0 7.0
03/05:00pm 7.4 4.0 5.7 89 0.8 SSW 13 24 7 13 1014.5 1014.4 7.0
03/04:30pm 8.0 3.2 5.5 84 1.2 SW 20 35 11 19 1013.9 1013.8 7.0
03/04:00pm 7.9 2.3 5.4 84 1.2 SW 24 44 13 24 1013.4 1013.3 7.0
03/03:30pm 7.5 2.8 6.0 90 0.7 SW 20 35 11 19 1013.1 1013.0 7.0
03/03:00pm 6.0 2.5 5.6 97 0.2 SW 13 20 7 11 1012.6 1012.5 7.0
03/02:30pm 5.7 1.7 5.0 95 0.3 SSW 15 24 8 13 1012.0 1011.9 6.6
03/02:00pm 5.7 0.8 5.0 95 0.3 SW 20 35 11 19 1011.4 1011.2 6.4
03/01:30pm 5.7 -0.7 5.0 95 0.3 SW 28 50 15 27 1010.9 1010.8 5.2
03/01:02pm 6.5 0.0 6.5 100 0.0 SW 30 48 16 26 1010.1 1009.9 4.6
03/01:00pm 6.5 -0.4 6.5 100 0.0 SW 32 48 17 26 1010.0 1009.8 4.6
03/12:49pm 7.1 1.1 7.1 100 0.0 SW 28 54 15 29 1009.6 1009.5 4.6
03/12:30pm 7.9 2.5 7.9 100 0.0 SW 26 39 14 21 1009.3 1009.1 4.2
03/12:00pm 7.9 3.2 7.9 100 0.0 SW 22 39 12 21 1009.2 1009.0 3.2
03/11:30am 8.0 3.7 7.9 99 0.0 SW 20 32 11 17 1008.9 1008.7 1.2
03/11:00am 8.0 3.3 7.9 99 0.0 SW 22 33 12 18 1008.8 1008.6 0.6
03/10:30am 7.5 3.2 7.2 98 0.1 SW 19 32 10 17 1008.8 1008.6 0.6
03/10:00am 7.2 2.9 6.8 97 0.2 SW 19 32 10 17 1008.6 1008.4 0.0
03/09:30am 7.0 3.3 6.3 95 0.3 SW 15 24 8 13 1008.3 1008.1 0.0
03/09:00am 6.9 2.3 5.7 92 0.6 SW 19 28 10 15 1008.0 1007.8 0.0
03/08:30am 6.6 2.3 5.2 91 0.6 SW 17 24 9 13 1007.5 1007.3 0.0
03/08:00am 6.3 0.6 4.8 90 0.7 WSW 24 33 13 18 1007.1 1006.8 0.0
03/07:30am 6.0 1.5 4.2 88 0.8 WSW 17 20 9 11 1006.8 1006.6 0.0
03/07:00am 5.9 2.7 3.2 83 1.2 SSW 9 17 5 9 1006.4 1006.2 0.0
03/06:30am 5.7 2.5 3.2 84 1.1 SSW 9 13 5 7 1005.7 1005.4 0.0
03/06:00am 5.8 2.6 2.8 81 1.3 S 9 11 5 6 1005.3 1005.1 0.0
03/05:30am 6.0 2.7 2.6 79 1.5 SW 9 13 5 7 1005.1 1004.9 0.0
03/05:00am 6.3 4.6 4.0 85 1.0 NNW 2 9 1 5 1005.2 1005.0 0.0
03/04:30am 6.8 4.3 3.8 81 1.3 NNE 6 9 3 5 1005.1 1004.9 0.0
03/04:00am 6.0 3.3 2.8 80 1.4 NNE 6 7 3 4 1005.0 1004.7 0.0
03/03:30am 6.4 2.7 2.5 76 1.7 NNE 11 15 6 8 1005.1 1004.9 0.0
03/03:00am 6.2 2.5 2.5 77 1.6 NNE 11 13 6 7 1005.4 1005.2 0.0
03/02:30am 6.2 2.2 2.8 79 1.5 NNE 13 15 7 8 1005.4 1005.2 0.0
03/02:00am 6.2 2.2 2.8 79 1.5 NNE 13 17 7 9 1005.7 1005.4 0.0
03/01:30am 7.3 3.7 2.8 73 2.0 NNE 11 13 6 7 1006.1 1005.8 0.0
03/01:00am 8.4 5.2 3.3 70 2.3 NNE 9 13 5 7 1006.4 1006.2 0.0
03/12:30am 7.5 4.2 2.6 71 2.1 NNE 9 11 5 6 1006.9 1006.7 0.0
03/12:00am 6.7 3.7 2.2 73 1.9 NNW 7 9 4 5 1007.1 1006.8 0.0
 
Date/Time
EST
Temp
°C
App
Temp
°C
Dew
Point
Rel
Hum
%
Delta-T
°C
Wind Press
QNH
hPa
Press
MSL
hPa
Rain
since 9 am
mm
Dir
 
Spd
km/h
Gust
km/h
Spd
kts
Gust
kts
02/11:30pm 6.5 4.3 0.8 67 2.4 N 2 9 1 5 1006.9 1006.7 0.0
02/11:00pm 6.9 3.6 -0.1 61 2.9 NNE 7 9 4 5 1007.3 1007.0 0.0
02/10:30pm 6.4 4.4 2.1 74 1.8 NNE 2 7 1 4 1007.6 1007.4 0.0
02/10:00pm 6.1 4.5 2.2 76 1.7 CALM 0 0 0 0 1007.6 1007.4 0.0
02/09:30pm 6.6 3.9 2.9 77 1.6 WNW 6 9 3 5 1008.0 1007.8 0.0
02/09:00pm 6.0 3.3 2.5 78 1.5 NE 6 7 3 4 1008.1 1007.9 0.0
02/08:30pm 6.4 4.8 2.7 77 1.6 CALM 0 0 0 0 1008.0 1007.8 0.0

Other Formats:

Comma delimited format used in spreadsheet applications
http://www.bom.gov.au/fwo/IDV60801/IDV60801.94913.axf

JavaScript Object Notation format (JSON) in row-major order
http://www.bom.gov.au/fwo/IDV60801/IDV60801.94913.json